sensor_id;sensor_type;location;lat;lon;timestamp;temperature;humidity
23568;DHT22;11962;50.838;4.430;2023-05-07T00:00:42;18.30;99.90
23568;DHT22;11962;50.838;4.430;2023-05-07T00:03:08;18.30;99.90
23568;DHT22;11962;50.838;4.430;2023-05-07T00:05:33;18.40;99.90
23568;DHT22;11962;50.838;4.430;2023-05-07T00:07:59;18.40;99.90
23568;DHT22;11962;50.838;4.430;2023-05-07T00:10:25;18.40;99.90
23568;DHT22;11962;50.838;4.430;2023-05-07T00:12:51;18.40;99.90
23568;DHT22;11962;50.838;4.430;2023-05-07T00:15:17;18.40;99.90
23568;DHT22;11962;50.838;4.430;2023-05-07T00:17:43;18.40;99.90
23568;DHT22;11962;50.838;4.430;2023-05-07T00:20:09;18.40;99.90
23568;DHT22;11962;50.838;4.430;2023-05-07T00:22:34;18.40;99.90
23568;DHT22;11962;50.838;4.430;2023-05-07T00:25:00;18.40;99.90
23568;DHT22;11962;50.838;4.430;2023-05-07T00:27:26;18.40;99.90
23568;DHT22;11962;50.838;4.430;2023-05-07T00:29:52;18.40;99.90
23568;DHT22;11962;50.838;4.430;2023-05-07T00:32:17;18.40;99.90
23568;DHT22;11962;50.838;4.430;2023-05-07T00:34:44;18.40;99.90
23568;DHT22;11962;50.838;4.430;2023-05-07T00:37:09;18.40;99.90
23568;DHT22;11962;50.838;4.430;2023-05-07T00:42:57;18.40;99.90
23568;DHT22;11962;50.838;4.430;2023-05-07T00:45:26;18.40;99.90
23568;DHT22;11962;50.838;4.430;2023-05-07T00:47:57;18.40;99.90
23568;DHT22;11962;50.838;4.430;2023-05-07T00:50:24;18.30;99.90
23568;DHT22;11962;50.838;4.430;2023-05-07T00:52:50;18.40;99.90
23568;DHT22;11962;50.838;4.430;2023-05-07T00:55:16;18.30;99.90
23568;DHT22;11962;50.838;4.430;2023-05-07T00:57:42;18.40;99.90
23568;DHT22;11962;50.838;4.430;2023-05-07T01:00:09;18.40;99.90
23568;DHT22;11962;50.838;4.430;2023-05-07T01:02:36;18.40;99.90
23568;DHT22;11962;50.838;4.430;2023-05-07T01:05:03;18.40;99.90
23568;DHT22;11962;50.838;4.430;2023-05-07T01:07:31;18.40;99.90
23568;DHT22;11962;50.838;4.430;2023-05-07T01:09:58;18.40;99.90
23568;DHT22;11962;50.838;4.430;2023-05-07T01:12:25;18.40;99.90
23568;DHT22;11962;50.838;4.430;2023-05-07T01:14:51;18.40;99.90
23568;DHT22;11962;50.838;4.430;2023-05-07T01:17:17;18.30;99.90
23568;DHT22;11962;50.838;4.430;2023-05-07T01:19:43;18.30;99.90
23568;DHT22;11962;50.838;4.430;2023-05-07T01:22:10;18.30;99.90
23568;DHT22;11962;50.838;4.430;2023-05-07T01:24:37;18.20;99.90
23568;DHT22;11962;50.838;4.430;2023-05-07T01:27:04;18.20;99.90
23568;DHT22;11962;50.838;4.430;2023-05-07T01:29:30;18.20;99.90
23568;DHT22;11962;50.838;4.430;2023-05-07T01:32:00;18.20;99.90
23568;DHT22;11962;50.838;4.430;2023-05-07T01:34:28;18.20;99.90
23568;DHT22;11962;50.838;4.430;2023-05-07T01:36:56;18.20;99.90
23568;DHT22;11962;50.838;4.430;2023-05-07T01:39:27;18.20;99.90
23568;DHT22;11962;50.838;4.430;2023-05-07T01:41:59;18.10;99.90
23568;DHT22;11962;50.838;4.430;2023-05-07T01:44:25;18.10;99.90
23568;DHT22;11962;50.838;4.430;2023-05-07T01:46:52;18.10;99.90
23568;DHT22;11962;50.838;4.430;2023-05-07T01:49:19;18.10;99.90
23568;DHT22;11962;50.838;4.430;2023-05-07T01:51:45;18.00;99.90
23568;DHT22;11962;50.838;4.430;2023-05-07T01:54:10;18.10;99.90
23568;DHT22;11962;50.838;4.430;2023-05-07T01:56:36;18.00;99.90
23568;DHT22;11962;50.838;4.430;2023-05-07T01:59:02;18.10;99.90
23568;DHT22;11962;50.838;4.430;2023-05-07T02:01:28;18.10;99.90
23568;DHT22;11962;50.838;4.430;2023-05-07T02:03:54;18.10;99.90
23568;DHT22;11962;50.838;4.430;2023-05-07T02:06:20;18.00;99.90
23568;DHT22;11962;50.838;4.430;2023-05-07T02:08:46;18.00;99.90
23568;DHT22;11962;50.838;4.430;2023-05-07T02:11:12;18.00;99.90
23568;DHT22;11962;50.838;4.430;2023-05-07T02:13:38;18.00;99.90
23568;DHT22;11962;50.838;4.430;2023-05-07T02:16:04;18.00;99.90
23568;DHT22;11962;50.838;4.430;2023-05-07T02:18:31;17.90;99.90
23568;DHT22;11962;50.838;4.430;2023-05-07T02:20:57;17.90;99.90
23568;DHT22;11962;50.838;4.430;2023-05-07T02:23:23;17.80;99.90
23568;DHT22;11962;50.838;4.430;2023-05-07T02:25:49;17.80;99.90
23568;DHT22;11962;50.838;4.430;2023-05-07T02:28:14;17.80;99.90
23568;DHT22;11962;50.838;4.430;2023-05-07T02:30:40;17.70;99.90
23568;DHT22;11962;50.838;4.430;2023-05-07T02:33:06;17.70;99.90
23568;DHT22;11962;50.838;4.430;2023-05-07T02:35:33;17.70;99.90
23568;DHT22;11962;50.838;4.430;2023-05-07T02:37:59;17.70;99.90
23568;DHT22;11962;50.838;4.430;2023-05-07T02:40:25;17.70;99.90
23568;DHT22;11962;50.838;4.430;2023-05-07T02:42:51;17.60;99.90
23568;DHT22;11962;50.838;4.430;2023-05-07T02:45:16;17.60;99.90
23568;DHT22;11962;50.838;4.430;2023-05-07T02:47:42;17.60;99.90
23568;DHT22;11962;50.838;4.430;2023-05-07T02:50:08;17.50;99.90
23568;DHT22;11962;50.838;4.430;2023-05-07T02:52:34;17.40;99.90
23568;DHT22;11962;50.838;4.430;2023-05-07T02:54:59;17.40;99.90
23568;DHT22;11962;50.838;4.430;2023-05-07T02:57:25;17.30;99.90
23568;DHT22;11962;50.838;4.430;2023-05-07T02:59:51;17.30;99.90
23568;DHT22;11962;50.838;4.430;2023-05-07T03:02:17;17.30;99.90
23568;DHT22;11962;50.838;4.430;2023-05-07T03:04:42;17.30;99.90
23568;DHT22;11962;50.838;4.430;2023-05-07T03:07:08;17.40;99.90
23568;DHT22;11962;50.838;4.430;2023-05-07T03:09:34;17.40;99.90
23568;DHT22;11962;50.838;4.430;2023-05-07T03:12:00;17.40;99.90
23568;DHT22;11962;50.838;4.430;2023-05-07T03:14:27;17.40;99.90
23568;DHT22;11962;50.838;4.430;2023-05-07T03:16:52;17.50;99.90
23568;DHT22;11962;50.838;4.430;2023-05-07T03:19:18;17.50;99.90
23568;DHT22;11962;50.838;4.430;2023-05-07T03:21:44;17.50;99.90
23568;DHT22;11962;50.838;4.430;2023-05-07T03:24:10;17.50;99.90
23568;DHT22;11962;50.838;4.430;2023-05-07T03:26:35;17.50;99.90
23568;DHT22;11962;50.838;4.430;2023-05-07T03:29:01;17.50;99.90
23568;DHT22;11962;50.838;4.430;2023-05-07T03:31:27;17.50;99.90
23568;DHT22;11962;50.838;4.430;2023-05-07T03:33:56;17.50;99.90
23568;DHT22;11962;50.838;4.430;2023-05-07T03:36:22;17.50;99.90
23568;DHT22;11962;50.838;4.430;2023-05-07T03:38:48;17.50;99.90
23568;DHT22;11962;50.838;4.430;2023-05-07T03:41:14;17.50;99.90
23568;DHT22;11962;50.838;4.430;2023-05-07T03:43:40;17.50;99.90
23568;DHT22;11962;50.838;4.430;2023-05-07T03:46:06;17.60;99.90
23568;DHT22;11962;50.838;4.430;2023-05-07T03:48:32;17.60;99.90
23568;DHT22;11962;50.838;4.430;2023-05-07T03:50:57;17.60;99.90
23568;DHT22;11962;50.838;4.430;2023-05-07T03:53:23;17.60;99.90
23568;DHT22;11962;50.838;4.430;2023-05-07T03:55:49;17.60;99.90
23568;DHT22;11962;50.838;4.430;2023-05-07T03:58:15;17.60;99.90
23568;DHT22;11962;50.838;4.430;2023-05-07T04:00:41;17.60;99.90
23568;DHT22;11962;50.838;4.430;2023-05-07T04:03:07;17.50;99.90
23568;DHT22;11962;50.838;4.430;2023-05-07T04:05:33;17.50;99.90
23568;DHT22;11962;50.838;4.430;2023-05-07T04:07:59;17.50;99.90
23568;DHT22;11962;50.838;4.430;2023-05-07T04:10:25;17.50;99.90
23568;DHT22;11962;50.838;4.430;2023-05-07T04:12:51;17.50;99.90
23568;DHT22;11962;50.838;4.430;2023-05-07T04:15:17;17.50;99.90
23568;DHT22;11962;50.838;4.430;2023-05-07T04:17:43;17.50;99.90
23568;DHT22;11962;50.838;4.430;2023-05-07T04:20:10;17.50;99.90
23568;DHT22;11962;50.838;4.430;2023-05-07T04:22:36;17.50;99.90
23568;DHT22;11962;50.838;4.430;2023-05-07T04:25:03;17.50;99.90
23568;DHT22;11962;50.838;4.430;2023-05-07T04:27:28;17.50;99.90
23568;DHT22;11962;50.838;4.430;2023-05-07T04:29:55;17.50;99.90
23568;DHT22;11962;50.838;4.430;2023-05-07T04:32:23;17.50;99.90
23568;DHT22;11962;50.838;4.430;2023-05-07T04:34:50;17.50;99.90
23568;DHT22;11962;50.838;4.430;2023-05-07T04:37:16;17.50;99.90
23568;DHT22;11962;50.838;4.430;2023-05-07T04:39:42;17.50;99.90
23568;DHT22;11962;50.838;4.430;2023-05-07T04:42:08;17.60;99.90
23568;DHT22;11962;50.838;4.430;2023-05-07T04:44:34;17.60;99.90
23568;DHT22;11962;50.838;4.430;2023-05-07T04:47:02;17.60;99.90
23568;DHT22;11962;50.838;4.430;2023-05-07T04:49:28;17.60;99.90
23568;DHT22;11962;50.838;4.430;2023-05-07T04:51:54;17.70;99.90
23568;DHT22;11962;50.838;4.430;2023-05-07T04:54:19;17.70;99.90
23568;DHT22;11962;50.838;4.430;2023-05-07T04:56:45;17.80;99.90
23568;DHT22;11962;50.838;4.430;2023-05-07T04:59:11;17.80;99.90
23568;DHT22;11962;50.838;4.430;2023-05-07T05:01:36;17.80;99.90
23568;DHT22;11962;50.838;4.430;2023-05-07T05:04:02;17.90;99.90
23568;DHT22;11962;50.838;4.430;2023-05-07T05:06:29;17.90;99.90
23568;DHT22;11962;50.838;4.430;2023-05-07T05:08:54;17.90;99.90
23568;DHT22;11962;50.838;4.430;2023-05-07T05:11:21;17.90;99.90
23568;DHT22;11962;50.838;4.430;2023-05-07T05:13:46;18.00;99.90
23568;DHT22;11962;50.838;4.430;2023-05-07T05:16:14;18.00;99.90
23568;DHT22;11962;50.838;4.430;2023-05-07T05:18:40;18.10;99.90
23568;DHT22;11962;50.838;4.430;2023-05-07T05:21:06;18.20;99.90
23568;DHT22;11962;50.838;4.430;2023-05-07T05:23:32;18.30;99.90
23568;DHT22;11962;50.838;4.430;2023-05-07T05:25:58;18.40;99.90
23568;DHT22;11962;50.838;4.430;2023-05-07T05:28:24;18.50;99.90
23568;DHT22;11962;50.838;4.430;2023-05-07T05:30:50;18.60;99.90
23568;DHT22;11962;50.838;4.430;2023-05-07T05:33:16;18.70;99.90
23568;DHT22;11962;50.838;4.430;2023-05-07T05:35:42;18.70;99.90
23568;DHT22;11962;50.838;4.430;2023-05-07T05:38:08;18.70;99.90
23568;DHT22;11962;50.838;4.430;2023-05-07T05:40:34;18.60;99.90
23568;DHT22;11962;50.838;4.430;2023-05-07T05:43:00;18.60;99.90
23568;DHT22;11962;50.838;4.430;2023-05-07T05:45:25;18.60;99.90
23568;DHT22;11962;50.838;4.430;2023-05-07T05:47:51;18.70;99.90
23568;DHT22;11962;50.838;4.430;2023-05-07T05:50:17;18.70;99.90
23568;DHT22;11962;50.838;4.430;2023-05-07T05:52:43;18.60;99.90
23568;DHT22;11962;50.838;4.430;2023-05-07T05:55:09;18.50;99.90
23568;DHT22;11962;50.838;4.430;2023-05-07T05:57:35;18.50;99.90
23568;DHT22;11962;50.838;4.430;2023-05-07T06:00:01;18.40;99.90
23568;DHT22;11962;50.838;4.430;2023-05-07T06:02:28;18.50;99.90
23568;DHT22;11962;50.838;4.430;2023-05-07T06:04:53;18.50;99.90
23568;DHT22;11962;50.838;4.430;2023-05-07T06:07:19;18.50;99.90
23568;DHT22;11962;50.838;4.430;2023-05-07T06:09:45;18.50;99.90
23568;DHT22;11962;50.838;4.430;2023-05-07T06:12:11;18.50;99.90
23568;DHT22;11962;50.838;4.430;2023-05-07T06:14:37;18.50;99.90
23568;DHT22;11962;50.838;4.430;2023-05-07T06:17:03;18.60;99.90
23568;DHT22;11962;50.838;4.430;2023-05-07T06:19:29;18.60;99.90
23568;DHT22;11962;50.838;4.430;2023-05-07T06:21:55;18.50;99.90
23568;DHT22;11962;50.838;4.430;2023-05-07T06:24:22;18.50;99.90
23568;DHT22;11962;50.838;4.430;2023-05-07T06:26:48;18.60;99.90
23568;DHT22;11962;50.838;4.430;2023-05-07T06:29:14;18.70;99.90
23568;DHT22;11962;50.838;4.430;2023-05-07T06:31:39;18.80;99.90
23568;DHT22;11962;50.838;4.430;2023-05-07T06:34:05;18.80;99.90
23568;DHT22;11962;50.838;4.430;2023-05-07T06:36:31;18.80;99.90
23568;DHT22;11962;50.838;4.430;2023-05-07T06:38:57;18.90;99.90
23568;DHT22;11962;50.838;4.430;2023-05-07T06:41:23;18.90;99.90
23568;DHT22;11962;50.838;4.430;2023-05-07T06:43:49;19.00;99.90
23568;DHT22;11962;50.838;4.430;2023-05-07T06:46:14;19.00;99.90
23568;DHT22;11962;50.838;4.430;2023-05-07T06:48:40;19.10;99.90
23568;DHT22;11962;50.838;4.430;2023-05-07T06:51:06;19.20;99.90
23568;DHT22;11962;50.838;4.430;2023-05-07T06:53:32;19.20;99.90
23568;DHT22;11962;50.838;4.430;2023-05-07T06:55:57;19.20;99.90
23568;DHT22;11962;50.838;4.430;2023-05-07T06:58:23;19.00;99.90
23568;DHT22;11962;50.838;4.430;2023-05-07T07:00:49;19.00;99.90
23568;DHT22;11962;50.838;4.430;2023-05-07T07:03:15;19.00;99.90
23568;DHT22;11962;50.838;4.430;2023-05-07T07:05:41;19.00;99.90
23568;DHT22;11962;50.838;4.430;2023-05-07T07:08:07;19.00;99.90
23568;DHT22;11962;50.838;4.430;2023-05-07T07:10:33;19.00;99.90
23568;DHT22;11962;50.838;4.430;2023-05-07T07:12:59;19.00;99.90
23568;DHT22;11962;50.838;4.430;2023-05-07T07:15:25;19.10;99.90
23568;DHT22;11962;50.838;4.430;2023-05-07T07:17:51;19.10;99.90
23568;DHT22;11962;50.838;4.430;2023-05-07T07:20:17;19.10;99.90
23568;DHT22;11962;50.838;4.430;2023-05-07T07:22:43;19.10;99.90
23568;DHT22;11962;50.838;4.430;2023-05-07T07:25:09;19.20;99.90
23568;DHT22;11962;50.838;4.430;2023-05-07T07:27:36;19.20;99.90
23568;DHT22;11962;50.838;4.430;2023-05-07T07:30:03;19.30;99.90
23568;DHT22;11962;50.838;4.430;2023-05-07T07:32:29;19.40;99.90
23568;DHT22;11962;50.838;4.430;2023-05-07T07:34:54;19.40;99.90
23568;DHT22;11962;50.838;4.430;2023-05-07T07:37:20;19.40;99.90
23568;DHT22;11962;50.838;4.430;2023-05-07T07:39:52;19.50;99.90
23568;DHT22;11962;50.838;4.430;2023-05-07T07:42:18;19.60;99.90
23568;DHT22;11962;50.838;4.430;2023-05-07T07:44:44;19.60;99.90
23568;DHT22;11962;50.838;4.430;2023-05-07T07:47:10;19.70;99.90
23568;DHT22;11962;50.838;4.430;2023-05-07T07:49:35;19.70;99.90
23568;DHT22;11962;50.838;4.430;2023-05-07T07:52:01;19.70;99.90
23568;DHT22;11962;50.838;4.430;2023-05-07T07:54:27;19.80;99.90
23568;DHT22;11962;50.838;4.430;2023-05-07T07:56:54;19.90;99.90
23568;DHT22;11962;50.838;4.430;2023-05-07T07:59:20;20.00;99.90
23568;DHT22;11962;50.838;4.430;2023-05-07T08:01:46;19.90;99.90
23568;DHT22;11962;50.838;4.430;2023-05-07T08:04:13;19.90;99.90
23568;DHT22;11962;50.838;4.430;2023-05-07T08:06:39;19.90;99.90
23568;DHT22;11962;50.838;4.430;2023-05-07T08:09:05;19.90;99.90
23568;DHT22;11962;50.838;4.430;2023-05-07T08:11:31;19.90;99.90
23568;DHT22;11962;50.838;4.430;2023-05-07T08:13:56;19.90;99.90
23568;DHT22;11962;50.838;4.430;2023-05-07T08:16:22;20.00;99.90
23568;DHT22;11962;50.838;4.430;2023-05-07T08:18:48;20.10;99.90
23568;DHT22;11962;50.838;4.430;2023-05-07T08:21:14;20.20;99.90
23568;DHT22;11962;50.838;4.430;2023-05-07T08:23:40;20.30;99.90
23568;DHT22;11962;50.838;4.430;2023-05-07T08:26:07;20.30;99.90
23568;DHT22;11962;50.838;4.430;2023-05-07T08:28:32;20.30;99.90
23568;DHT22;11962;50.838;4.430;2023-05-07T08:30:58;20.30;99.90
23568;DHT22;11962;50.838;4.430;2023-05-07T08:33:26;20.40;99.90
23568;DHT22;11962;50.838;4.430;2023-05-07T08:35:52;20.30;99.90
23568;DHT22;11962;50.838;4.430;2023-05-07T08:38:18;20.20;99.90
23568;DHT22;11962;50.838;4.430;2023-05-07T08:40:44;20.20;99.90
23568;DHT22;11962;50.838;4.430;2023-05-07T08:43:13;20.30;99.90
23568;DHT22;11962;50.838;4.430;2023-05-07T08:45:40;20.30;99.90
23568;DHT22;11962;50.838;4.430;2023-05-07T08:48:10;20.30;99.90
23568;DHT22;11962;50.838;4.430;2023-05-07T08:50:39;20.30;99.90
23568;DHT22;11962;50.838;4.430;2023-05-07T08:53:05;20.50;99.90
23568;DHT22;11962;50.838;4.430;2023-05-07T08:55:31;20.60;99.90
23568;DHT22;11962;50.838;4.430;2023-05-07T08:57:59;20.70;99.90
23568;DHT22;11962;50.838;4.430;2023-05-07T09:00:25;20.80;99.90
23568;DHT22;11962;50.838;4.430;2023-05-07T09:02:52;20.80;99.90
23568;DHT22;11962;50.838;4.430;2023-05-07T09:05:18;20.90;99.90
23568;DHT22;11962;50.838;4.430;2023-05-07T09:07:44;20.90;99.90
23568;DHT22;11962;50.838;4.430;2023-05-07T09:10:10;21.00;99.90
23568;DHT22;11962;50.838;4.430;2023-05-07T09:12:35;21.10;99.90
23568;DHT22;11962;50.838;4.430;2023-05-07T09:15:01;21.10;99.90
23568;DHT22;11962;50.838;4.430;2023-05-07T09:17:28;21.10;99.90
23568;DHT22;11962;50.838;4.430;2023-05-07T09:19:54;21.10;99.90
23568;DHT22;11962;50.838;4.430;2023-05-07T09:22:20;21.20;99.90
23568;DHT22;11962;50.838;4.430;2023-05-07T09:24:50;21.20;99.90
23568;DHT22;11962;50.838;4.430;2023-05-07T09:27:16;21.20;99.90
23568;DHT22;11962;50.838;4.430;2023-05-07T09:29:44;21.20;99.90
23568;DHT22;11962;50.838;4.430;2023-05-07T09:32:09;21.20;99.90
23568;DHT22;11962;50.838;4.430;2023-05-07T09:34:35;21.30;99.90
23568;DHT22;11962;50.838;4.430;2023-05-07T09:37:02;21.20;99.90
23568;DHT22;11962;50.838;4.430;2023-05-07T09:39:45;21.30;99.90
23568;DHT22;11962;50.838;4.430;2023-05-07T09:42:11;21.40;99.90
23568;DHT22;11962;50.838;4.430;2023-05-07T09:44:38;21.50;99.90
23568;DHT22;11962;50.838;4.430;2023-05-07T09:47:07;21.50;99.90
23568;DHT22;11962;50.838;4.430;2023-05-07T09:49:35;21.50;99.90
23568;DHT22;11962;50.838;4.430;2023-05-07T09:52:06;21.60;99.90
23568;DHT22;11962;50.838;4.430;2023-05-07T09:54:35;21.60;99.90
23568;DHT22;11962;50.838;4.430;2023-05-07T09:57:04;21.70;99.90
23568;DHT22;11962;50.838;4.430;2023-05-07T09:59:32;21.70;99.90
23568;DHT22;11962;50.838;4.430;2023-05-07T10:01:59;21.80;99.90
23568;DHT22;11962;50.838;4.430;2023-05-07T10:04:26;21.70;99.90
23568;DHT22;11962;50.838;4.430;2023-05-07T10:06:52;21.70;99.90
23568;DHT22;11962;50.838;4.430;2023-05-07T10:09:19;21.70;99.90
23568;DHT22;11962;50.838;4.430;2023-05-07T10:11:46;21.60;99.90
23568;DHT22;11962;50.838;4.430;2023-05-07T10:14:14;21.70;99.90
23568;DHT22;11962;50.838;4.430;2023-05-07T10:16:41;21.70;99.90
23568;DHT22;11962;50.838;4.430;2023-05-07T10:19:10;21.80;99.90
23568;DHT22;11962;50.838;4.430;2023-05-07T10:21:40;21.80;99.90
23568;DHT22;11962;50.838;4.430;2023-05-07T10:24:15;21.90;99.90
23568;DHT22;11962;50.838;4.430;2023-05-07T10:26:44;21.90;99.90
23568;DHT22;11962;50.838;4.430;2023-05-07T10:32:05;21.80;99.90
23568;DHT22;11962;50.838;4.430;2023-05-07T10:34:39;21.80;99.90
23568;DHT22;11962;50.838;4.430;2023-05-07T10:37:06;21.70;99.90
23568;DHT22;11962;50.838;4.430;2023-05-07T10:39:32;21.60;99.90
23568;DHT22;11962;50.838;4.430;2023-05-07T10:42:08;21.70;99.90
23568;DHT22;11962;50.838;4.430;2023-05-07T10:44:34;21.70;99.90
23568;DHT22;11962;50.838;4.430;2023-05-07T10:47:08;21.70;99.90
23568;DHT22;11962;50.838;4.430;2023-05-07T10:52:22;21.80;99.90
23568;DHT22;11962;50.838;4.430;2023-05-07T10:57:47;22.10;99.90
23568;DHT22;11962;50.838;4.430;2023-05-07T11:05:30;22.50;99.90
23568;DHT22;11962;50.838;4.430;2023-05-07T11:07:56;22.60;99.90
23568;DHT22;11962;50.838;4.430;2023-05-07T11:10:22;22.70;99.90
23568;DHT22;11962;50.838;4.430;2023-05-07T11:12:52;22.70;99.90
23568;DHT22;11962;50.838;4.430;2023-05-07T11:15:38;22.80;99.90
23568;DHT22;11962;50.838;4.430;2023-05-07T11:18:04;22.80;99.90
23568;DHT22;11962;50.838;4.430;2023-05-07T11:20:52;22.90;99.90
23568;DHT22;11962;50.838;4.430;2023-05-07T11:26:19;23.00;99.90
23568;DHT22;11962;50.838;4.430;2023-05-07T11:28:46;22.90;99.90
23568;DHT22;11962;50.838;4.430;2023-05-07T11:31:11;22.90;99.90
23568;DHT22;11962;50.838;4.430;2023-05-07T11:33:38;23.10;99.90
23568;DHT22;11962;50.838;4.430;2023-05-07T11:36:04;23.20;99.90
23568;DHT22;11962;50.838;4.430;2023-05-07T11:38:34;23.10;99.90
23568;DHT22;11962;50.838;4.430;2023-05-07T11:41:00;23.10;99.90
23568;DHT22;11962;50.838;4.430;2023-05-07T11:43:27;23.10;99.90
23568;DHT22;11962;50.838;4.430;2023-05-07T11:45:53;23.30;99.90
23568;DHT22;11962;50.838;4.430;2023-05-07T11:48:19;23.40;99.90
23568;DHT22;11962;50.838;4.430;2023-05-07T11:50:54;23.50;99.90
23568;DHT22;11962;50.838;4.430;2023-05-07T11:53:26;23.60;99.90
23568;DHT22;11962;50.838;4.430;2023-05-07T11:56:09;23.60;99.90
23568;DHT22;11962;50.838;4.430;2023-05-07T11:58:35;23.90;99.90
23568;DHT22;11962;50.838;4.430;2023-05-07T12:01:02;24.00;99.90
23568;DHT22;11962;50.838;4.430;2023-05-07T12:03:27;24.20;99.90
23568;DHT22;11962;50.838;4.430;2023-05-07T12:05:54;24.20;99.90
23568;DHT22;11962;50.838;4.430;2023-05-07T12:08:21;24.30;99.90
23568;DHT22;11962;50.838;4.430;2023-05-07T12:10:50;24.50;99.90
23568;DHT22;11962;50.838;4.430;2023-05-07T12:13:18;24.60;99.90
23568;DHT22;11962;50.838;4.430;2023-05-07T12:15:44;24.70;99.90
23568;DHT22;11962;50.838;4.430;2023-05-07T12:18:13;24.80;99.90
23568;DHT22;11962;50.838;4.430;2023-05-07T12:20:39;24.70;99.90
23568;DHT22;11962;50.838;4.430;2023-05-07T12:23:05;24.70;99.90
23568;DHT22;11962;50.838;4.430;2023-05-07T12:25:35;24.70;99.90
23568;DHT22;11962;50.838;4.430;2023-05-07T12:28:02;24.80;99.90
23568;DHT22;11962;50.838;4.430;2023-05-07T12:30:31;24.60;99.90
23568;DHT22;11962;50.838;4.430;2023-05-07T12:32:57;24.40;99.90
23568;DHT22;11962;50.838;4.430;2023-05-07T12:35:30;24.40;99.90
23568;DHT22;11962;50.838;4.430;2023-05-07T12:38:00;24.40;99.90
23568;DHT22;11962;50.838;4.430;2023-05-07T12:43:02;24.40;99.90
23568;DHT22;11962;50.838;4.430;2023-05-07T12:45:28;24.30;99.90
23568;DHT22;11962;50.838;4.430;2023-05-07T12:47:54;24.30;99.90
23568;DHT22;11962;50.838;4.430;2023-05-07T12:50:20;24.30;99.90
23568;DHT22;11962;50.838;4.430;2023-05-07T12:52:47;24.10;99.90
23568;DHT22;11962;50.838;4.430;2023-05-07T12:55:17;24.10;99.90
23568;DHT22;11962;50.838;4.430;2023-05-07T12:57:47;24.20;99.90
23568;DHT22;11962;50.838;4.430;2023-05-07T13:00:14;24.10;99.90
23568;DHT22;11962;50.838;4.430;2023-05-07T13:02:40;24.10;99.90
23568;DHT22;11962;50.838;4.430;2023-05-07T13:05:07;24.10;99.90
23568;DHT22;11962;50.838;4.430;2023-05-07T13:07:33;24.10;99.90
23568;DHT22;11962;50.838;4.430;2023-05-07T13:09:59;24.30;99.90
23568;DHT22;11962;50.838;4.430;2023-05-07T13:12:25;24.30;99.90
23568;DHT22;11962;50.838;4.430;2023-05-07T13:14:51;24.40;99.90
23568;DHT22;11962;50.838;4.430;2023-05-07T13:17:16;24.40;99.90
23568;DHT22;11962;50.838;4.430;2023-05-07T13:19:44;24.30;99.90
23568;DHT22;11962;50.838;4.430;2023-05-07T13:22:09;24.30;99.90
23568;DHT22;11962;50.838;4.430;2023-05-07T13:24:36;24.30;99.90
23568;DHT22;11962;50.838;4.430;2023-05-07T13:27:02;24.30;99.90
23568;DHT22;11962;50.838;4.430;2023-05-07T13:29:28;24.30;99.90
23568;DHT22;11962;50.838;4.430;2023-05-07T13:31:58;24.30;99.90
23568;DHT22;11962;50.838;4.430;2023-05-07T13:34:24;24.30;99.90
23568;DHT22;11962;50.838;4.430;2023-05-07T13:36:50;24.30;99.90
23568;DHT22;11962;50.838;4.430;2023-05-07T13:39:16;24.30;99.90
23568;DHT22;11962;50.838;4.430;2023-05-07T13:41:41;24.20;99.90
23568;DHT22;11962;50.838;4.430;2023-05-07T13:44:07;24.30;99.90
23568;DHT22;11962;50.838;4.430;2023-05-07T13:46:33;24.30;99.90
23568;DHT22;11962;50.838;4.430;2023-05-07T13:48:59;24.40;99.90
23568;DHT22;11962;50.838;4.430;2023-05-07T13:51:25;24.40;99.90
23568;DHT22;11962;50.838;4.430;2023-05-07T13:53:51;24.30;99.90
23568;DHT22;11962;50.838;4.430;2023-05-07T13:56:18;24.20;99.90
23568;DHT22;11962;50.838;4.430;2023-05-07T13:58:44;24.10;99.90
23568;DHT22;11962;50.838;4.430;2023-05-07T14:01:09;24.10;99.90
23568;DHT22;11962;50.838;4.430;2023-05-07T14:03:35;24.10;99.90
23568;DHT22;11962;50.838;4.430;2023-05-07T14:06:03;24.10;99.90
23568;DHT22;11962;50.838;4.430;2023-05-07T14:08:29;23.90;99.90
23568;DHT22;11962;50.838;4.430;2023-05-07T14:10:55;23.70;99.90
23568;DHT22;11962;50.838;4.430;2023-05-07T14:13:21;23.80;99.90
23568;DHT22;11962;50.838;4.430;2023-05-07T14:15:46;23.80;99.90
23568;DHT22;11962;50.838;4.430;2023-05-07T14:18:14;23.80;99.90
23568;DHT22;11962;50.838;4.430;2023-05-07T14:20:41;23.80;99.90
23568;DHT22;11962;50.838;4.430;2023-05-07T14:23:08;23.80;99.90
23568;DHT22;11962;50.838;4.430;2023-05-07T14:25:34;23.60;99.90
23568;DHT22;11962;50.838;4.430;2023-05-07T14:28:00;23.60;99.90
23568;DHT22;11962;50.838;4.430;2023-05-07T14:30:25;23.60;99.90
23568;DHT22;11962;50.838;4.430;2023-05-07T14:32:51;23.60;99.90
23568;DHT22;11962;50.838;4.430;2023-05-07T14:35:17;23.50;99.90
23568;DHT22;11962;50.838;4.430;2023-05-07T14:37:43;23.50;99.90
23568;DHT22;11962;50.838;4.430;2023-05-07T14:40:09;23.50;99.90
23568;DHT22;11962;50.838;4.430;2023-05-07T14:42:35;23.50;99.90
23568;DHT22;11962;50.838;4.430;2023-05-07T14:45:01;23.50;99.90
23568;DHT22;11962;50.838;4.430;2023-05-07T14:47:27;23.40;99.90
23568;DHT22;11962;50.838;4.430;2023-05-07T14:49:54;23.50;99.90
23568;DHT22;11962;50.838;4.430;2023-05-07T14:52:20;23.40;99.90
23568;DHT22;11962;50.838;4.430;2023-05-07T14:54:46;23.40;99.90
23568;DHT22;11962;50.838;4.430;2023-05-07T14:57:13;23.40;99.90
23568;DHT22;11962;50.838;4.430;2023-05-07T14:59:40;23.40;99.90
23568;DHT22;11962;50.838;4.430;2023-05-07T15:02:06;23.30;99.90
23568;DHT22;11962;50.838;4.430;2023-05-07T15:04:33;23.30;99.90
23568;DHT22;11962;50.838;4.430;2023-05-07T15:06:59;23.30;99.90
23568;DHT22;11962;50.838;4.430;2023-05-07T15:09:25;23.40;99.90
23568;DHT22;11962;50.838;4.430;2023-05-07T15:11:51;23.30;99.90
23568;DHT22;11962;50.838;4.430;2023-05-07T15:14:17;23.20;99.90
23568;DHT22;11962;50.838;4.430;2023-05-07T15:16:43;23.20;99.90
23568;DHT22;11962;50.838;4.430;2023-05-07T15:19:09;23.20;99.90
23568;DHT22;11962;50.838;4.430;2023-05-07T15:21:34;23.10;99.90
23568;DHT22;11962;50.838;4.430;2023-05-07T15:24:02;22.90;99.90
23568;DHT22;11962;50.838;4.430;2023-05-07T15:26:28;22.90;99.90
23568;DHT22;11962;50.838;4.430;2023-05-07T15:28:54;22.70;99.90
23568;DHT22;11962;50.838;4.430;2023-05-07T15:31:23;22.70;99.90
23568;DHT22;11962;50.838;4.430;2023-05-07T15:33:49;22.60;99.90
23568;DHT22;11962;50.838;4.430;2023-05-07T15:36:15;22.60;99.90
23568;DHT22;11962;50.838;4.430;2023-05-07T15:38:41;22.60;99.90
23568;DHT22;11962;50.838;4.430;2023-05-07T15:41:07;22.60;99.90
23568;DHT22;11962;50.838;4.430;2023-05-07T15:43:44;22.60;99.90
23568;DHT22;11962;50.838;4.430;2023-05-07T15:46:11;22.60;99.90
23568;DHT22;11962;50.838;4.430;2023-05-07T15:48:37;22.40;99.90